Time;durP1;ratioP1;P1;durP2;ratioP2;P2;SDS_P1;SDS_P2;PMS_P1;PMS_P2;Temp;Humidity;BMP_temperature;BMP_pressure;BME280_temperature;BME280_humidity;BME280_pressure;Samples;Min_cycle;Max_cycle;Signal;HPM_P1;HPM_P2
2021/08/12 00:00:03;;;;;;;59.53;3.90;;;17.40;1.00;;;;;;5075678;28;20469;-72
2021/08/12 00:02:32;;;;;;;58.67;2.90;;;17.30;1.00;;;;;;5075191;28;20480;-72
2021/08/12 00:04:59;;;;;;;58.43;2.67;;;17.30;1.00;;;;;;5075516;28;20541;-72
2021/08/12 00:07:26;;;;;;;58.47;2.80;;;17.30;1.00;;;;;;5075320;28;20524;-72
2021/08/12 00:09:52;;;;;;;58.27;2.87;;;17.30;1.00;;;;;;5074774;28;20457;-71
2021/08/12 00:12:19;;;;;;;58.50;3.10;;;17.20;1.00;;;;;;5074132;28;20780;-72
2021/08/12 00:14:46;;;;;;;58.23;2.70;;;17.20;1.00;;;;;;5075584;28;20496;-72
2021/08/12 00:17:13;;;;;;;58.50;2.70;;;17.20;1.00;;;;;;5075017;28;20508;-73
2021/08/12 00:19:41;;;;;;;58.63;2.90;;;17.10;1.00;;;;;;5074674;28;20474;-72
2021/08/12 00:22:08;;;;;;;59.07;3.10;;;17.10;1.00;;;;;;5073991;28;20501;-72
2021/08/12 00:24:35;;;;;;;58.77;3.43;;;17.00;1.00;;;;;;5073898;28;20478;-72
2021/08/12 00:27:02;;;;;;;59.30;3.60;;;17.00;1.00;;;;;;5073436;28;21104;-72
2021/08/12 00:29:29;;;;;;;58.77;3.00;;;17.00;1.00;;;;;;5073397;28;20454;-72
2021/08/12 00:31:56;;;;;;;58.70;3.13;;;16.90;1.00;;;;;;5073624;28;20467;-72
2021/08/12 00:34:23;;;;;;;58.10;2.50;;;16.90;1.00;;;;;;5073575;28;20882;-72
2021/08/12 00:36:51;;;;;;;58.40;2.90;;;16.90;1.00;;;;;;5073653;28;20457;-72
2021/08/12 00:39:18;;;;;;;58.80;2.97;;;16.90;1.00;;;;;;5073483;28;20544;-72
2021/08/12 00:41:45;;;;;;;58.63;3.07;;;16.80;1.00;;;;;;5073744;28;20975;-73
2021/08/12 00:44:12;;;;;;;58.93;3.53;;;16.80;1.00;;;;;;5073573;28;20471;-73
2021/08/12 00:46:39;;;;;;;58.47;3.00;;;16.80;1.00;;;;;;5073329;28;20569;-72
2021/08/12 00:49:06;;;;;;;58.37;3.13;;;16.80;1.00;;;;;;5073216;28;20448;-72
2021/08/12 00:51:35;;;;;;;58.07;2.60;;;16.90;1.00;;;;;;5073434;28;20581;-72
2021/08/12 00:54:04;;;;;;;58.40;2.70;;;16.90;1.00;;;;;;5072855;28;20451;-72
2021/08/12 00:56:31;;;;;;;58.47;3.13;;;16.90;1.00;;;;;;5073537;28;20493;-72
2021/08/12 00:58:58;;;;;;;58.40;2.80;;;16.80;1.00;;;;;;5073438;28;20469;-72
2021/08/12 01:01:25;;;;;;;58.13;2.70;;;16.80;1.00;;;;;;5072848;28;20551;-73
2021/08/12 01:03:52;;;;;;;59.67;4.20;;;16.80;1.00;;;;;;5073157;28;20529;-73
2021/08/12 01:06:33;;;;;;;58.80;2.80;;;16.80;1.00;;;;;;5073526;28;20530;-72
2021/08/12 01:09:07;;;;;;;58.47;2.60;;;16.70;1.00;;;;;;5073218;28;20453;-73
2021/08/12 01:11:38;;;;;;;58.63;2.83;;;16.70;1.00;;;;;;5073224;28;20515;-72
2021/08/12 01:14:19;;;;;;;58.87;3.40;;;16.60;1.00;;;;;;5073168;28;20446;-72
2021/08/12 01:16:49;;;;;;;58.13;2.77;;;16.60;1.00;;;;;;5073158;28;20571;-72
2021/08/12 01:19:40;;;;;;;59.73;3.73;;;16.60;1.00;;;;;;5072754;28;20537;-72
2021/08/12 01:22:08;;;;;;;58.33;3.00;;;16.60;1.00;;;;;;5034512;28;1117544;-72
2021/08/12 01:24:39;;;;;;;58.50;2.70;;;16.60;1.00;;;;;;5074024;28;20242;-72
2021/08/12 01:27:10;;;;;;;58.47;3.20;;;16.60;1.00;;;;;;5073638;28;20461;-72
2021/08/12 01:29:48;;;;;;;58.47;2.90;;;16.50;1.00;;;;;;5073686;28;20527;-72
2021/08/12 01:32:19;;;;;;;58.47;2.83;;;16.50;1.00;;;;;;5074032;28;20855;-72
2021/08/12 01:35:00;;;;;;;58.50;2.90;;;16.50;1.00;;;;;;5073809;28;20540;-72
2021/08/12 01:37:31;;;;;;;58.77;3.47;;;16.50;1.00;;;;;;5073516;28;20572;-72
2021/08/12 01:40:00;;;;;;;58.17;2.77;;;16.50;1.00;;;;;;5073700;28;20532;-72
2021/08/12 01:42:28;;;;;;;58.50;2.90;;;16.50;1.00;;;;;;5073677;28;20480;-72
2021/08/12 01:44:56;;;;;;;58.63;3.27;;;16.50;1.00;;;;;;5073172;28;20472;-72
2021/08/12 01:47:25;;;;;;;58.47;3.53;;;16.50;1.00;;;;;;5072094;28;20456;-72
2021/08/12 01:49:54;;;;;;;57.77;2.80;;;16.50;1.00;;;;;;5073285;28;20450;-72
2021/08/12 01:52:21;;;;;;;59.20;3.87;;;16.50;1.00;;;;;;5073426;28;20465;-72
2021/08/12 01:54:50;;;;;;;58.37;2.60;;;16.40;1.00;;;;;;5073291;28;20541;-72
2021/08/12 01:57:18;;;;;;;59.07;2.83;;;16.50;1.00;;;;;;5073105;28;20492;-72
2021/08/12 01:59:45;;;;;;;58.20;2.80;;;16.40;1.00;;;;;;5072759;28;20489;-72
2021/08/12 02:02:14;;;;;;;58.33;2.70;;;16.40;1.00;;;;;;5073020;28;21012;-72
2021/08/12 02:04:41;;;;;;;58.07;2.57;;;16.50;1.00;;;;;;5073051;28;20540;-72
2021/08/12 02:07:12;;;;;;;58.03;2.70;;;16.50;1.00;;;;;;5072756;28;20446;-72
2021/08/12 02:09:39;;;;;;;58.40;2.80;;;16.50;1.00;;;;;;5072765;28;20445;-72
2021/08/12 02:12:08;;;;;;;58.60;3.07;;;16.60;1.00;;;;;;5073162;28;20473;-72
2021/08/12 02:14:35;;;;;;;58.20;2.90;;;16.60;1.00;;;;;;5073012;28;20533;-72
2021/08/12 02:17:02;;;;;;;58.47;3.23;;;16.60;1.00;;;;;;5072623;28;20571;-72
2021/08/12 02:19:30;;;;;;;58.47;2.80;;;16.70;1.00;;;;;;5072707;28;20795;-72
2021/08/12 02:22:01;;;;;;;58.60;2.67;;;16.70;1.00;;;;;;5072785;28;21031;-72
2021/08/12 02:24:37;;;;;;;58.30;2.70;;;16.70;1.00;;;;;;5072681;28;20457;-72
2021/08/12 02:27:09;;;;;;;58.70;2.73;;;16.60;1.00;;;;;;5072632;28;20942;-72
2021/08/12 02:29:36;;;;;;;58.00;2.63;;;16.60;1.00;;;;;;5072584;28;20541;-72
2021/08/12 02:32:08;;;;;;;58.47;2.63;;;16.60;1.00;;;;;;5072662;28;20504;-72
2021/08/12 02:34:36;;;;;;;58.17;2.80;;;16.50;1.00;;;;;;5072470;28;20979;-72
2021/08/12 02:37:06;;;;;;;57.80;2.83;;;16.40;1.00;;;;;;5072204;28;20490;-72
2021/08/12 02:39:36;;;;;;;58.47;2.80;;;16.40;1.00;;;;;;5072426;28;20449;-72
2021/08/12 02:42:04;;;;;;;58.60;2.93;;;16.40;1.00;;;;;;5072589;28;20493;-72
2021/08/12 02:44:32;;;;;;;58.07;2.60;;;16.40;1.00;;;;;;5072318;28;21014;-72
2021/08/12 02:47:03;;;;;;;58.37;2.70;;;16.40;1.00;;;;;;5072412;28;20443;-72
2021/08/12 02:49:32;;;;;;;58.27;2.63;;;16.40;1.00;;;;;;5072126;28;20498;-72
2021/08/12 02:52:00;;;;;;;58.07;2.63;;;16.50;1.00;;;;;;5072119;28;20961;-72
2021/08/12 02:54:29;;;;;;;57.87;2.60;;;16.50;1.00;;;;;;5072536;28;20456;-72
2021/08/12 02:56:58;;;;;;;58.23;2.57;;;16.50;1.00;;;;;;5072133;28;21008;-72
2021/08/12 02:59:26;;;;;;;58.60;2.80;;;16.50;1.00;;;;;;5072048;28;20828;-72
2021/08/12 03:01:55;;;;;;;58.60;3.20;;;16.50;1.00;;;;;;5072615;28;20552;-72
2021/08/12 03:04:23;;;;;;;58.40;3.00;;;16.40;1.00;;;;;;5072114;28;20496;-72
2021/08/12 03:06:58;;;;;;;58.47;2.60;;;16.40;1.00;;;;;;5072462;28;20536;-72
2021/08/12 03:09:27;;;;;;;58.50;2.60;;;16.40;1.00;;;;;;5072154;28;20452;-72
2021/08/12 03:11:55;;;;;;;58.37;2.70;;;16.40;1.00;;;;;;5071992;28;20973;-72
2021/08/12 03:14:23;;;;;;;58.47;3.00;;;16.40;1.00;;;;;;5072026;28;20459;-72
2021/08/12 03:16:51;;;;;;;58.50;2.80;;;16.40;1.00;;;;;;5071802;28;20484;-72
2021/08/12 03:19:17;;;;;;;58.27;2.70;;;16.40;1.00;;;;;;5072038;28;20453;-72
2021/08/12 03:22:02;;;;;;;58.17;2.73;;;16.40;1.00;;;;;;5071721;28;20482;-72
2021/08/12 03:24:30;;;;;;;58.70;2.70;;;16.40;1.00;;;;;;5071918;28;20531;-72
2021/08/12 03:26:57;;;;;;;58.03;2.60;;;16.40;1.00;;;;;;5071787;28;20446;-72
2021/08/12 03:29:25;;;;;;;58.60;2.80;;;16.30;1.00;;;;;;5071403;28;20458;-72
2021/08/12 03:31:52;;;;;;;59.00;2.90;;;16.30;1.00;;;;;;5072161;28;21026;-72
2021/08/12 03:34:19;;;;;;;58.30;2.87;;;16.30;1.00;;;;;;5071749;28;20536;-72
2021/08/12 03:36:46;;;;;;;58.70;2.80;;;16.20;1.00;;;;;;5071781;28;20571;-72
2021/08/12 03:39:13;;;;;;;58.53;2.80;;;16.20;1.00;;;;;;5071548;28;20694;-72
2021/08/12 03:41:40;;;;;;;58.37;2.80;;;16.20;1.00;;;;;;5071685;28;20468;-72
2021/08/12 03:44:07;;;;;;;57.77;2.50;;;16.20;1.00;;;;;;5072022;28;20536;-72
2021/08/12 03:46:35;;;;;;;58.13;2.67;;;16.10;1.00;;;;;;5071848;28;20446;-73
2021/08/12 03:49:03;;;;;;;58.60;2.90;;;16.10;1.00;;;;;;5071842;28;20473;-72
2021/08/12 03:51:30;;;;;;;58.60;3.10;;;16.10;1.00;;;;;;5071587;28;21023;-70
2021/08/12 03:53:57;;;;;;;59.30;3.67;;;16.10;1.00;;;;;;5071749;28;20539;-70
2021/08/12 03:56:24;;;;;;;58.30;2.70;;;16.10;1.00;;;;;;5071441;28;20530;-71
2021/08/12 03:58:51;;;;;;;58.40;2.90;;;16.00;1.00;;;;;;5071986;28;20517;-70
2021/08/12 04:01:18;;;;;;;58.23;2.80;;;16.00;1.00;;;;;;5071502;28;20573;-72
2021/08/12 04:03:46;;;;;;;58.23;2.90;;;16.00;1.00;;;;;;5071479;28;20537;-72
2021/08/12 04:06:14;;;;;;;58.47;3.00;;;16.00;1.00;;;;;;5071614;28;20450;-72
2021/08/12 04:08:40;;;;;;;58.20;2.90;;;16.00;1.00;;;;;;5071557;28;20454;-72
2021/08/12 04:11:07;;;;;;;58.80;3.27;;;16.00;1.00;;;;;;5071414;28;20496;-72
2021/08/12 04:13:34;;;;;;;58.47;3.07;;;16.00;1.00;;;;;;5071608;28;20449;-72
2021/08/12 04:16:01;;;;;;;58.43;3.00;;;16.00;1.00;;;;;;5071445;28;20448;-72
2021/08/12 04:18:28;;;;;;;58.90;3.10;;;16.00;1.00;;;;;;5071602;28;20853;-72
2021/08/12 04:20:56;;;;;;;58.43;2.80;;;16.00;1.00;;;;;;5070859;28;20573;-72
2021/08/12 04:23:23;;;;;;;58.40;3.00;;;16.00;1.00;;;;;;5071356;28;20482;-72
2021/08/12 04:25:52;;;;;;;58.30;2.90;;;15.90;1.00;;;;;;5071394;28;20878;-72
2021/08/12 04:28:19;;;;;;;58.17;2.77;;;15.90;1.00;;;;;;5072037;28;20534;-72
2021/08/12 04:30:48;;;;;;;58.07;2.70;;;15.90;1.00;;;;;;5074620;28;20496;-72
2021/08/12 04:33:15;;;;;;;58.63;2.93;;;16.00;1.00;;;;;;5075330;28;20518;-72
2021/08/12 04:35:42;;;;;;;58.90;4.03;;;16.00;1.00;;;;;;5075048;28;20449;-72
2021/08/12 04:38:10;;;;;;;58.37;2.73;;;16.00;1.00;;;;;;5074639;28;20493;-72
2021/08/12 04:40:38;;;;;;;58.17;2.87;;;16.10;1.00;;;;;;5074359;28;20906;-72
2021/08/12 04:43:05;;;;;;;57.97;2.87;;;16.10;1.00;;;;;;5074885;28;20453;-72
2021/08/12 04:45:32;;;;;;;58.33;3.00;;;16.10;1.00;;;;;;5074723;28;20950;-72
2021/08/12 04:48:00;;;;;;;59.20;3.33;;;16.20;1.00;;;;;;5074538;28;20481;-72
2021/08/12 04:50:27;;;;;;;58.20;2.63;;;16.20;1.00;;;;;;5073960;28;20457;-71
2021/08/12 04:52:54;;;;;;;58.17;2.70;;;16.20;1.00;;;;;;5074638;28;20449;-71
2021/08/12 04:55:22;;;;;;;58.30;2.70;;;16.20;1.00;;;;;;5074770;28;20451;-72
2021/08/12 04:57:49;;;;;;;59.00;2.80;;;16.20;1.00;;;;;;5074627;28;20495;-72
2021/08/12 05:00:16;;;;;;;58.57;3.07;;;16.20;1.00;;;;;;5074146;28;20450;-72
2021/08/12 05:02:43;;;;;;;58.37;3.40;;;16.20;1.00;;;;;;5074583;28;20536;-72
2021/08/12 05:05:11;;;;;;;58.37;2.90;;;16.20;1.00;;;;;;5074249;28;20446;-71
2021/08/12 05:07:38;;;;;;;58.17;2.80;;;16.30;1.00;;;;;;5074150;28;20982;-71
2021/08/12 05:10:05;;;;;;;59.20;3.80;;;16.30;1.00;;;;;;5074204;28;20455;-71
2021/08/12 05:12:34;;;;;;;58.40;3.00;;;16.40;1.00;;;;;;5074366;28;20555;-71
2021/08/12 05:15:01;;;;;;;58.33;3.10;;;16.50;1.00;;;;;;5074247;28;20537;-71
2021/08/12 05:17:28;;;;;;;58.33;2.77;;;16.60;1.00;;;;;;5073880;28;20871;-71
2021/08/12 05:19:55;;;;;;;58.17;3.03;;;16.70;1.00;;;;;;5073866;28;21226;-71
2021/08/12 05:22:23;;;;;;;58.10;2.60;;;16.70;1.00;;;;;;5074110;28;20521;-71
2021/08/12 05:24:50;;;;;;;58.57;3.00;;;16.80;1.00;;;;;;5074055;28;20446;-70
2021/08/12 05:27:17;;;;;;;58.50;3.07;;;16.70;1.00;;;;;;5073924;28;20478;-71
2021/08/12 05:29:45;;;;;;;59.17;3.53;;;16.70;1.00;;;;;;5074078;28;20965;-71
2021/08/12 05:32:12;;;;;;;58.20;2.70;;;16.70;1.00;;;;;;5073619;28;20849;-71
2021/08/12 05:34:39;;;;;;;58.40;2.90;;;16.70;1.00;;;;;;5073609;28;20542;-71
2021/08/12 05:37:06;;;;;;;58.13;2.50;;;16.70;1.00;;;;;;5073700;28;20445;-71
2021/08/12 05:39:33;;;;;;;58.03;2.70;;;16.70;1.00;;;;;;5072902;28;20446;-71
2021/08/12 05:42:00;;;;;;;58.83;3.63;;;16.70;1.00;;;;;;5073420;28;20557;-71
2021/08/12 05:44:27;;;;;;;57.87;2.90;;;16.80;1.00;;;;;;5073565;28;20454;-71
2021/08/12 05:46:55;;;;;;;58.30;3.27;;;16.80;1.00;;;;;;5073763;28;20456;-70
2021/08/12 05:49:24;;;;;;;58.07;2.60;;;16.90;1.00;;;;;;5073332;28;20538;-70
2021/08/12 05:51:51;;;;;;;60.30;3.07;;;16.90;1.00;;;;;;5073458;28;20998;-71
2021/08/12 05:54:18;;;;;;;58.50;2.93;;;17.00;1.00;;;;;;5073387;28;20949;-71
2021/08/12 05:56:44;;;;;;;59.17;3.70;;;17.10;1.00;;;;;;5073871;28;20532;-71
2021/08/12 05:59:12;;;;;;;58.10;2.50;;;17.10;1.00;;;;;;5073072;28;21074;-71
2021/08/12 06:01:38;;;;;;;58.40;2.93;;;17.20;1.00;;;;;;5073245;28;20549;-71
2021/08/12 06:04:07;;;;;;;57.93;2.70;;;17.30;1.00;;;;;;5073390;28;20477;-71
2021/08/12 06:06:36;;;;;;;59.53;2.97;;;17.40;1.00;;;;;;5073443;28;20478;-71
2021/08/12 06:09:04;;;;;;;57.70;2.80;;;17.40;1.00;;;;;;5073285;28;20446;-71
2021/08/12 06:11:31;;;;;;;58.17;3.00;;;17.50;1.00;;;;;;5072839;28;20561;-71
2021/08/12 06:13:57;;;;;;;57.97;2.47;;;17.50;1.00;;;;;;5072772;28;20538;-71
2021/08/12 06:16:24;;;;;;;58.17;2.80;;;17.50;1.00;;;;;;5073190;28;20497;-71
2021/08/12 06:18:51;;;;;;;58.97;3.20;;;17.60;1.00;;;;;;5073021;28;20930;-71
2021/08/12 06:21:20;;;;;;;58.30;2.90;;;17.60;1.00;;;;;;5071057;28;20672;-71
2021/08/12 06:23:47;;;;;;;59.10;2.60;;;17.60;1.00;;;;;;5072426;28;21025;-72
2021/08/12 06:26:14;;;;;;;58.20;2.60;;;17.60;1.00;;;;;;5070509;28;20486;-72
2021/08/12 06:28:41;;;;;;;58.87;3.13;;;17.70;1.00;;;;;;5072986;28;20512;-72
2021/08/12 06:31:08;;;;;;;58.97;3.50;;;17.70;1.00;;;;;;5072076;28;20501;-72
2021/08/12 06:33:34;;;;;;;58.30;3.00;;;17.70;1.00;;;;;;5072640;28;20537;-72
2021/08/12 06:36:01;;;;;;;58.13;3.00;;;17.70;1.00;;;;;;5072583;28;20960;-72
2021/08/12 06:38:30;;;;;;;59.00;3.07;;;17.80;1.00;;;;;;5072383;28;20529;-72
2021/08/12 06:40:56;;;;;;;58.17;2.50;;;17.80;1.00;;;;;;5071794;28;20561;-72
2021/08/12 06:43:23;;;;;;;58.10;2.70;;;17.90;1.00;;;;;;5072737;28;20545;-72
2021/08/12 06:45:50;;;;;;;57.73;2.73;;;18.00;1.00;;;;;;5072716;28;20624;-73
2021/08/12 06:48:17;;;;;;;59.07;2.90;;;18.00;1.00;;;;;;5072287;28;21037;-72
2021/08/12 06:50:44;;;;;;;58.37;2.73;;;18.10;1.00;;;;;;5071901;28;20553;-72
2021/08/12 06:53:11;;;;;;;58.50;2.90;;;18.20;1.00;;;;;;5071970;28;20541;-72
2021/08/12 06:55:39;;;;;;;58.30;2.40;;;18.30;1.00;;;;;;5072454;28;20485;-72
2021/08/12 06:58:06;;;;;;;57.97;2.57;;;18.40;1.00;;;;;;5070139;28;20566;-72
2021/08/12 07:00:32;;;;;;;58.27;2.87;;;18.50;1.00;;;;;;5071924;28;20483;-72
2021/08/12 07:02:59;;;;;;;58.37;2.70;;;18.60;1.00;;;;;;5072251;28;20501;-72
2021/08/12 07:05:26;;;;;;;57.80;2.27;;;18.80;1.00;;;;;;5072575;28;20449;-72
2021/08/12 07:07:53;;;;;;;57.90;2.50;;;19.00;1.00;;;;;;5071782;28;20454;-72
2021/08/12 07:10:21;;;;;;;58.60;3.37;;;19.20;1.00;;;;;;5071774;28;21007;-72
2021/08/12 07:12:49;;;;;;;58.13;2.90;;;19.40;1.00;;;;;;5072415;28;20479;-72
2021/08/12 07:15:16;;;;;;;58.13;3.00;;;19.50;1.00;;;;;;5072354;28;20447;-72
2021/08/12 07:17:42;;;;;;;58.03;2.30;;;19.60;1.00;;;;;;5071678;28;20473;-72
2021/08/12 07:20:10;;;;;;;58.40;2.50;;;19.70;1.00;;;;;;5071800;28;20893;-72
2021/08/12 07:22:37;;;;;;;57.97;2.60;;;19.80;1.00;;;;;;5071564;28;20483;-72
2021/08/12 07:25:05;;;;;;;59.10;3.00;;;19.90;1.00;;;;;;5072238;28;20531;-72
2021/08/12 07:27:32;;;;;;;59.10;2.50;;;20.00;1.00;;;;;;5071612;28;20879;-72
2021/08/12 07:30:00;;;;;;;58.27;2.70;;;20.10;1.00;;;;;;5060109;28;20872;-72
2021/08/12 07:32:27;;;;;;;58.30;2.50;;;20.20;1.00;;;;;;5052043;28;20551;-72
2021/08/12 07:34:54;;;;;;;58.43;2.90;;;20.30;1.00;;;;;;5051722;28;20504;-72
2021/08/12 07:37:21;;;;;;;58.43;2.70;;;20.40;1.00;;;;;;5051143;28;20472;-72
2021/08/12 07:39:48;;;;;;;58.03;2.93;;;20.60;1.00;;;;;;5051279;28;20481;-72
2021/08/12 07:42:19;;;;;;;58.00;3.20;;;20.70;1.00;;;;;;5051424;28;20843;-72
2021/08/12 07:44:46;;;;;;;57.90;2.63;;;20.80;1.00;;;;;;5051601;28;20503;-72
2021/08/12 07:47:14;;;;;;;58.07;2.87;;;20.90;1.00;;;;;;5051106;28;20545;-72
2021/08/12 07:49:41;;;;;;;58.27;2.67;;;21.00;1.00;;;;;;5051544;28;20478;-72
2021/08/12 07:52:08;;;;;;;58.13;2.70;;;21.10;1.00;;;;;;5051592;28;20505;-72
2021/08/12 07:54:35;;;;;;;57.73;2.40;;;21.20;1.00;;;;;;5051779;28;20450;-72
2021/08/12 07:57:02;;;;;;;57.50;2.47;;;21.30;1.00;;;;;;5050922;28;20540;-72
2021/08/12 07:59:29;;;;;;;58.27;2.60;;;21.40;1.00;;;;;;5051307;28;20523;-72
2021/08/12 08:01:56;;;;;;;58.40;2.90;;;21.50;1.00;;;;;;5061245;28;20470;-72
2021/08/12 08:04:24;;;;;;;58.27;2.90;;;21.60;1.00;;;;;;5073678;28;20451;-72
2021/08/12 08:06:51;;;;;;;57.77;2.93;;;21.70;1.00;;;;;;5075404;28;20540;-72
2021/08/12 08:09:18;;;;;;;58.40;2.70;;;21.70;1.00;;;;;;5074265;28;20486;-72
2021/08/12 08:11:45;;;;;;;57.57;2.60;;;21.80;1.00;;;;;;5075427;28;20459;-72
2021/08/12 08:14:12;;;;;;;57.77;2.70;;;21.90;1.00;;;;;;5075319;28;20451;-72
2021/08/12 08:16:38;;;;;;;57.67;2.40;;;22.00;1.00;;;;;;5075275;28;20835;-72
2021/08/12 08:19:05;;;;;;;58.13;2.50;;;22.10;1.00;;;;;;5074776;28;20572;-72
2021/08/12 08:21:33;;;;;;;58.03;2.80;;;22.20;1.00;;;;;;5074914;28;20566;-72
2021/08/12 08:24:00;;;;;;;57.57;2.30;;;22.30;1.00;;;;;;5075189;28;20530;-72
2021/08/12 08:26:27;;;;;;;58.50;2.93;;;22.40;1.00;;;;;;5074754;28;20538;-72
2021/08/12 08:28:54;;;;;;;57.93;2.70;;;22.60;1.00;;;;;;5074864;28;20534;-72
2021/08/12 08:31:21;;;;;;;58.90;3.00;;;22.70;1.00;;;;;;5074300;28;20546;-72
2021/08/12 08:33:48;;;;;;;57.83;2.50;;;22.80;1.00;;;;;;5072829;28;20870;-72
2021/08/12 08:36:14;;;;;;;57.50;2.50;;;22.90;1.00;;;;;;5074772;28;20539;-72
2021/08/12 08:38:42;;;;;;;58.90;3.33;;;23.00;1.00;;;;;;5073826;28;21010;-72
2021/08/12 08:41:10;;;;;;;57.67;2.77;;;23.10;1.00;;;;;;5074409;28;20474;-72
2021/08/12 08:43:38;;;;;;;61.60;3.33;;;23.20;1.00;;;;;;5074805;28;20538;-72
2021/08/12 08:46:05;;;;;;;58.40;2.87;;;23.30;1.00;;;;;;5074634;28;20819;-72
2021/08/12 08:48:33;;;;;;;58.07;2.80;;;23.50;1.00;;;;;;5074347;28;20439;-72
2021/08/12 08:51:02;;;;;;;57.63;2.50;;;23.70;1.00;;;;;;5074320;28;20467;-73
2021/08/12 08:53:30;;;;;;;58.17;2.60;;;23.80;1.00;;;;;;5074443;28;20541;-72
2021/08/12 08:55:59;;;;;;;57.97;2.40;;;23.90;1.00;;;;;;5074701;28;20943;-72
2021/08/12 08:58:27;;;;;;;58.30;2.60;;;24.10;1.00;;;;;;5074655;28;20538;-73
2021/08/12 09:00:53;;;;;;;58.27;3.03;;;24.20;1.00;;;;;;5074179;28;20469;-73
2021/08/12 09:03:21;;;;;;;57.90;2.73;;;24.30;1.00;;;;;;5072420;28;20461;-73
2021/08/12 09:05:48;;;;;;;61.50;4.73;;;24.50;1.00;;;;;;5074409;28;20545;-73
2021/08/12 09:08:15;;;;;;;57.73;2.20;;;24.60;1.00;;;;;;5073712;28;20528;-73
2021/08/12 09:10:42;;;;;;;58.70;2.33;;;24.80;1.00;;;;;;5073597;28;20463;-73
2021/08/12 09:13:10;;;;;;;58.10;2.73;;;25.00;1.00;;;;;;5073867;28;20447;-74
2021/08/12 09:15:41;;;;;;;58.57;2.73;;;25.20;1.00;;;;;;5073903;28;20458;-74
2021/08/12 09:18:20;;;;;;;57.97;2.80;;;25.50;1.00;;;;;;5073957;28;20541;-74
2021/08/12 09:20:49;;;;;;;58.33;3.00;;;25.60;1.00;;;;;;5073491;28;20550;-73
2021/08/12 09:23:16;;;;;;;59.00;2.70;;;25.80;1.00;;;;;;5073783;28;20968;-73
2021/08/12 09:25:46;;;;;;;58.53;2.63;;;25.90;1.00;;;;;;5073890;28;20897;-73
2021/08/12 09:28:17;;;;;;;58.40;2.97;;;25.90;1.00;;;;;;5073707;28;20442;-73
2021/08/12 09:30:46;;;;;;;58.27;2.77;;;26.10;1.00;;;;;;5073561;28;20504;-73
2021/08/12 09:33:17;;;;;;;57.67;2.20;;;26.30;1.00;;;;;;5073765;28;20539;-73
2021/08/12 09:35:44;;;;;;;57.60;2.50;;;26.50;1.00;;;;;;5058657;28;20451;-72
2021/08/12 09:38:13;;;;;;;58.37;2.87;;;26.70;1.00;;;;;;5053414;28;20451;-73
2021/08/12 09:40:40;;;;;;;57.77;2.50;;;26.90;1.00;;;;;;5052625;28;20484;-72
2021/08/12 09:43:09;;;;;;;58.90;2.80;;;27.10;1.00;;;;;;5053418;28;20482;-72
2021/08/12 09:45:39;;;;;;;58.97;2.80;;;27.30;1.00;;;;;;5053438;28;20451;-72
2021/08/12 09:48:12;;;;;;;58.07;2.37;;;27.50;1.00;;;;;;5053410;28;20452;-72
2021/08/12 09:50:40;;;;;;;57.73;2.20;;;27.80;1.00;;;;;;5052802;28;20464;-72
2021/08/12 09:53:07;;;;;;;58.03;2.50;;;28.10;1.00;;;;;;5053171;28;20486;-72
2021/08/12 09:55:38;;;;;;;57.97;2.30;;;28.40;1.00;;;;;;5053361;28;20535;-70
2021/08/12 09:58:10;;;;;;;58.07;2.90;;;28.50;1.00;;;;;;5053327;28;20458;-70
2021/08/12 10:00:41;;;;;;;57.90;2.17;;;28.80;1.00;;;;;;5052649;28;20486;-70
2021/08/12 10:03:27;;;;;;;58.50;2.50;;;29.00;1.00;;;;;;5052948;28;20453;-70
2021/08/12 10:05:56;;;;;;;57.80;2.27;;;29.30;1.00;;;;;;5056665;28;20804;-70
2021/08/12 10:08:27;;;;;;;57.90;2.40;;;29.60;1.00;;;;;;5072860;28;20451;-72
2021/08/12 10:10:54;;;;;;;57.77;2.30;;;29.70;1.00;;;;;;5072182;28;20887;-72
2021/08/12 10:13:21;;;;;;;58.00;2.40;;;29.70;1.00;;;;;;5073030;28;20545;-72
2021/08/12 10:15:50;;;;;;;57.90;2.73;;;29.90;1.00;;;;;;5073063;28;20443;-72
2021/08/12 10:18:18;;;;;;;57.63;2.57;;;30.20;1.00;;;;;;5072957;28;20449;-72
2021/08/12 10:20:46;;;;;;;57.60;2.30;;;30.80;1.00;;;;;;5072282;28;20494;-72
2021/08/12 10:23:13;;;;;;;58.20;2.40;;;31.50;1.00;;;;;;5073042;28;20813;-72
2021/08/12 10:25:41;;;;;;;57.73;2.57;;;31.90;1.00;;;;;;5072323;28;20447;-72
2021/08/12 10:28:09;;;;;;;57.77;2.47;;;32.20;1.00;;;;;;5072115;28;20450;-72
2021/08/12 10:30:37;;;;;;;57.37;2.13;;;32.40;1.00;;;;;;5072666;28;20443;-72
2021/08/12 10:33:08;;;;;;;57.37;2.27;;;32.40;1.00;;;;;;5072756;28;20454;-72
2021/08/12 10:35:36;;;;;;;57.60;2.10;;;32.70;1.00;;;;;;5072507;28;20486;-72
2021/08/12 10:38:04;;;;;;;57.47;2.50;;;33.10;1.00;;;;;;5058292;28;20794;-72
2021/08/12 10:40:33;;;;;;;58.03;2.67;;;33.50;1.00;;;;;;5051376;28;20487;-72
2021/08/12 10:43:01;;;;;;;57.90;2.70;;;;;;;;;;5052616;28;20527;-72
2021/08/12 10:45:30;;;;;;;57.70;3.07;;;34.70;1.00;;;;;;5052516;28;20455;-72
2021/08/12 10:47:58;;;;;;;58.00;2.30;;;35.30;1.00;;;;;;5052325;28;20446;-72
2021/08/12 10:50:31;;;;;;;57.50;2.53;;;35.80;1.00;;;;;;5052033;28;20441;-72
2021/08/12 10:53:14;;;;;;;57.73;2.53;;;36.40;1.00;;;;;;5052124;28;20540;-72
2021/08/12 10:56:13;;;;;;;57.37;2.30;;;37.00;1.00;;;;;;5052475;28;20517;-73
2021/08/12 10:58:46;;;;;;;57.37;2.40;;;37.30;1.00;;;;;;5052260;28;20448;-72
2021/08/12 11:01:14;;;;;;;57.40;2.37;;;37.30;1.00;;;;;;5051573;28;20998;-72
2021/08/12 11:03:46;;;;;;;57.23;2.50;;;37.60;1.00;;;;;;5051826;28;20539;-72
2021/08/12 11:06:20;;;;;;;57.60;2.67;;;38.10;1.00;;;;;;5052181;28;20980;-72
2021/08/12 11:08:59;;;;;;;57.90;3.40;;;38.70;1.00;;;;;;5050121;28;20544;-73
2021/08/12 11:11:56;;;;;;;57.47;2.70;;;38.80;1.00;;;;;;5051083;28;20494;-73
2021/08/12 11:14:51;;;;;;;57.60;2.77;;;39.10;1.00;;;;;;5051819;28;20449;-73
2021/08/12 11:17:22;;;;;;;57.00;2.17;;;39.50;1.00;;;;;;5051798;28;20448;-73
2021/08/12 11:19:50;;;;;;;57.20;2.57;;;39.80;1.00;;;;;;5051358;28;20484;-73
2021/08/12 11:22:33;;;;;;;56.97;2.33;;;40.10;1.00;;;;;;5051460;28;20511;-73
2021/08/12 11:25:01;;;;;;;57.90;2.47;;;40.20;1.00;;;;;;5052151;28;20480;-73
2021/08/12 11:27:39;;;;;;;57.30;2.23;;;40.40;1.00;;;;;;5051554;28;20452;-73
2021/08/12 11:30:39;;;;;;;56.87;2.73;;;40.70;1.00;;;;;;5051143;28;20448;-72
2021/08/12 11:33:29;;;;;;;57.00;2.50;;;40.90;1.00;;;;;;5049245;28;20468;-73
2021/08/12 11:36:14;;;;;;;57.10;2.20;;;41.40;1.00;;;;;;5050546;28;20440;-73
2021/08/12 11:38:50;;;;;;;57.40;2.40;;;41.70;1.00;;;;;;5054090;28;20444;-70
2021/08/12 11:41:18;;;;;;;57.20;2.80;;;42.00;1.00;;;;;;5053429;28;20498;-70
2021/08/12 11:43:46;;;;;;;58.90;3.30;;;42.50;1.00;;;;;;5056200;28;20450;-73
2021/08/12 11:46:15;;;;;;;56.57;2.20;;;42.50;1.00;;;;;;5055720;28;20864;-70
2021/08/12 11:48:43;;;;;;;56.93;2.60;;;42.30;1.00;;;;;;5055574;28;21026;-70
2021/08/12 11:51:10;;;;;;;56.67;2.27;;;42.30;1.00;;;;;;5055300;28;20574;-71
2021/08/12 11:53:38;;;;;;;57.13;2.80;;;41.60;1.00;;;;;;5055726;28;20452;-72
2021/08/12 11:56:12;;;;;;;57.20;2.40;;;40.50;1.00;;;;;;5055455;28;20448;-72
2021/08/12 11:58:42;;;;;;;57.10;2.60;;;39.50;1.00;;;;;;5055273;28;20435;-71
2021/08/12 12:01:13;;;;;;;57.40;2.20;;;38.30;1.00;;;;;;5055776;28;20833;-72
2021/08/12 12:03:40;;;;;;;57.50;2.57;;;37.10;1.00;;;;;;5055803;28;20445;-72
2021/08/12 12:06:07;;;;;;;57.37;2.10;;;36.40;1.00;;;;;;5055292;28;20456;-72
2021/08/12 12:08:34;;;;;;;57.33;2.40;;;35.80;1.00;;;;;;5055645;28;20474;-71
2021/08/12 12:11:09;;;;;;;57.87;2.20;;;36.00;1.00;;;;;;5055330;28;20494;-71
2021/08/12 12:13:37;;;;;;;57.23;2.17;;;36.80;1.00;;;;;;5075441;28;20449;-72
2021/08/12 12:16:09;;;;;;;57.30;2.50;;;37.20;1.00;;;;;;5075104;28;20462;-71
2021/08/12 12:18:37;;;;;;;57.47;2.30;;;36.90;1.00;;;;;;5075107;28;20447;-71
2021/08/12 12:21:06;;;;;;;56.90;2.03;;;36.60;1.00;;;;;;5075005;28;21024;-72
2021/08/12 12:23:34;;;;;;;57.03;2.10;;;36.90;1.00;;;;;;5075130;28;20443;-71
2021/08/12 12:26:01;;;;;;;57.30;2.23;;;37.50;1.00;;;;;;5074993;28;20535;-71
2021/08/12 12:28:30;;;;;;;57.40;2.27;;;37.50;1.00;;;;;;5075036;28;20453;-71
2021/08/12 12:30:57;;;;;;;58.47;2.53;;;37.10;1.00;;;;;;5074193;28;20487;-71
2021/08/12 12:33:26;;;;;;;57.00;1.90;;;37.30;1.00;;;;;;5074934;28;20442;-71
2021/08/12 12:35:54;;;;;;;57.30;2.40;;;38.20;1.00;;;;;;5074601;28;20447;-72
2021/08/12 12:38:25;;;;;;;56.97;2.23;;;39.50;1.00;;;;;;5074419;28;20538;-70
2021/08/12 12:40:54;;;;;;;57.50;2.83;;;40.70;1.00;;;;;;5073394;28;20463;-71
2021/08/12 12:43:29;;;;;;;56.97;2.30;;;41.20;1.00;;;;;;5059729;28;20535;-71
2021/08/12 12:45:57;;;;;;;57.33;2.70;;;41.50;1.00;;;;;;5054628;28;20938;-72
2021/08/12 12:48:31;;;;;;;57.07;3.17;;;41.90;1.00;;;;;;5054839;28;20817;-72
2021/08/12 12:51:00;;;;;;;56.50;2.37;;;42.50;1.00;;;;;;5053482;28;20484;-72
2021/08/12 12:53:35;;;;;;;56.80;2.30;;;43.00;1.00;;;;;;5054711;28;20534;-72
2021/08/12 12:56:04;;;;;;;57.10;2.37;;;43.50;1.00;;;;;;5054381;28;20488;-70